Time;durP1;ratioP1;P1;durP2;ratioP2;P2;SDS_P1;SDS_P2;PMS_P1;PMS_P2;Temp;Humidity;BMP_temperature;BMP_pressure;BME280_temperature;BME280_humidity;BME280_pressure;Samples;Min_cycle;Max_cycle;Signal;HPM_P1;HPM_P2
2023/08/23 00:00:27;;;;;;;1.95;0.57;;;;;;;26.49;57.43;99913.22;4385828;32;33714;-86
2023/08/23 00:02:55;;;;;;;1.62;1.48;;;;;;;26.52;57.49;99915.59;4403272;32;33092;-88
2023/08/23 00:05:23;;;;;;;6.45;2.25;;;;;;;26.30;58.64;99909.78;4373262;32;33393;-88
2023/08/23 00:07:50;;;;;;;4.47;1.25;;;;;;;26.18;59.32;99902.13;4402794;32;33814;-88
2023/08/23 00:10:18;;;;;;;2.62;1.42;;;;;;;26.18;59.31;99900.28;4396901;32;32587;-87
2023/08/23 00:12:46;;;;;;;0.62;0.62;;;;;;;26.24;59.05;99888.78;4395571;32;34547;-86
2023/08/23 00:15:13;;;;;;;0.95;0.95;;;;;;;26.20;59.24;99895.53;4372422;32;32687;-86
2023/08/23 00:17:41;;;;;;;0.70;0.70;;;;;;;26.24;59.00;99890.62;4379808;32;32351;-86
2023/08/23 00:20:09;;;;;;;2.55;1.15;;;;;;;26.12;59.13;99884.72;4384016;32;33989;-86
2023/08/23 00:22:37;;;;;;;2.42;1.52;;;;;;;26.02;59.45;99889.41;4385813;32;32742;-86
2023/08/23 00:25:05;;;;;;;1.12;1.05;;;;;;;26.04;59.65;99887.37;4402948;32;33579;-86
2023/08/23 00:27:33;;;;;;;1.37;1.25;;;;;;;26.05;59.52;99884.50;4393606;32;33350;-86
2023/08/23 00:30:03;;;;;;;0.93;0.93;;;;;;;26.08;59.20;99877.94;4374179;32;33381;-85
2023/08/23 00:32:31;;;;;;;2.45;1.52;;;;;;;26.07;59.00;99880.81;4373762;32;32955;-86
2023/08/23 00:34:59;;;;;;;1.98;1.42;;;;;;;25.94;59.39;99876.69;4401529;32;33009;-86
2023/08/23 00:37:27;;;;;;;1.67;0.98;;;;;;;25.91;59.72;99881.56;4387449;32;33864;-86
2023/08/23 00:39:55;;;;;;;1.23;1.15;;;;;;;25.96;59.61;99884.63;4413232;32;33947;-85
2023/08/23 00:42:23;;;;;;;3.50;1.35;;;;;;;25.96;59.58;99873.81;4385790;32;33719;-87
2023/08/23 00:44:51;;;;;;;2.37;1.80;;;;;;;25.99;59.49;99871.63;4365474;32;32783;-87
2023/08/23 00:47:19;;;;;;;1.42;1.10;;;;;;;25.86;60.10;99881.22;4399281;32;33149;-87
2023/08/23 00:49:47;;;;;;;4.82;2.50;;;;;;;25.83;60.26;99868.88;4404178;32;34187;-87
2023/08/23 00:52:15;;;;;;;1.45;1.35;;;;;;;25.77;60.58;99869.53;4392732;32;33443;-87
2023/08/23 00:54:44;;;;;;;2.40;1.62;;;;;;;25.67;60.88;99880.44;4381276;32;32627;-87
2023/08/23 00:57:13;;;;;;;1.95;1.25;;;;;;;25.72;60.49;99867.28;4393606;32;33825;-87
2023/08/23 00:59:41;;;;;;;1.58;1.42;;;;;;;25.76;60.21;99857.84;4401608;32;33306;-87
2023/08/23 01:02:09;;;;;;;1.40;1.30;;;;;;;25.70;60.49;99866.59;4404081;32;32839;-87
2023/08/23 01:04:37;;;;;;;1.25;1.23;;;;;;;25.63;60.68;99865.53;4377324;32;32879;-87
2023/08/23 01:07:14;;;;;;;2.17;1.37;;;;;;;25.65;60.62;99865.41;4399117;32;32495;-87
2023/08/23 01:09:50;;;;;;;15.35;2.87;;;;;;;25.60;60.67;99865.03;4390645;32;34814;-87
2023/08/23 01:12:30;;;;;;;1.95;1.23;;;;;;;25.50;61.08;99868.72;4404730;32;33266;-88
2023/08/23 01:15:05;;;;;;;3.67;0.82;;;;;;;25.40;61.35;99870.69;4404162;32;33195;-88
2023/08/23 01:17:34;;;;;;;1.92;1.50;;;;;;;25.49;61.13;99871.56;4403568;32;33503;-86
2023/08/23 01:20:03;;;;;;;3.22;2.03;;;;;;;25.44;61.12;99866.63;4396256;32;33306;-86
2023/08/23 01:22:32;;;;;;;2.47;1.58;;;;;;;25.47;60.97;99866.31;4392133;32;33801;-90
2023/08/23 01:25:02;;;;;;;2.47;1.67;;;;;;;25.36;61.48;99871.16;4380658;32;32728;-90
2023/08/23 01:27:32;;;;;;;0.73;0.73;;;;;;;25.29;61.84;99870.94;4405841;32;34538;-90
2023/08/23 01:30:13;;;;;;;2.05;1.85;;;;;;;25.40;61.37;99872.53;4403113;32;33640;-89
2023/08/23 01:32:51;;;;;;;4.05;2.15;;;;;;;25.45;61.01;99872.91;4373316;32;32614;-89
2023/08/23 01:35:24;;;;;;;0.65;0.65;;;;;;;25.37;61.39;99870.16;4380638;32;32403;-89
2023/08/23 01:37:52;;;;;;;1.80;1.23;;;;;;;25.37;61.29;99867.44;4392543;32;33259;-89
2023/08/23 01:40:21;;;;;;;1.87;1.40;;;;;;;25.32;61.28;99869.78;4392278;32;33129;-89
2023/08/23 01:42:49;;;;;;;1.52;1.25;;;;;;;25.29;61.43;99866.38;4404403;32;32429;-89
2023/08/23 01:45:18;;;;;;;2.92;1.77;;;;;;;25.44;60.54;99857.69;4378870;32;31817;-89
2023/08/23 01:47:46;;;;;;;2.97;1.33;;;;;;;25.52;60.20;99858.56;4403870;32;33282;-89
2023/08/23 01:50:14;;;;;;;2.17;1.12;;;;;;;25.45;60.48;99864.81;4373968;32;32791;-89
2023/08/23 01:52:42;;;;;;;1.12;1.12;;;;;;;25.28;60.88;99870.09;4411020;32;33695;-89
2023/08/23 01:55:10;;;;;;;1.20;1.10;;;;;;;25.02;61.94;99869.25;4385221;32;32593;-89
2023/08/23 01:57:40;;;;;;;1.65;1.55;;;;;;;25.06;61.95;99870.59;4372439;32;33743;-89
2023/08/23 02:00:09;;;;;;;2.28;1.33;;;;;;;25.12;61.75;99867.31;4398548;32;32931;-89
2023/08/23 02:02:40;;;;;;;1.75;1.35;;;;;;;25.01;62.29;99862.13;4404890;32;34294;-90
2023/08/23 02:05:08;;;;;;;1.40;1.30;;;;;;;24.95;62.45;99860.06;4373801;32;33226;-91
2023/08/23 02:07:56;;;;;;;0.73;0.73;;;;;;;24.81;62.96;99857.91;4392325;32;33018;-90
2023/08/23 02:10:44;;;;;;;1.23;1.12;;;;;;;24.88;62.62;99864.41;4375971;32;33236;-91
2023/08/23 02:13:12;;;;;;;4.25;1.58;;;;;;;24.84;62.88;99854.91;4387533;32;32722;-90
2023/08/23 02:15:40;;;;;;;2.15;1.70;;;;;;;24.96;62.34;99854.47;4385736;32;32664;-90
2023/08/23 02:18:09;;;;;;;1.73;1.62;;;;;;;24.89;62.46;99844.50;4375635;32;32793;-90
2023/08/23 02:20:37;;;;;;;1.55;1.45;;;;;;;24.90;62.32;99838.91;4404277;32;33794;-90
2023/08/23 02:23:05;;;;;;;1.85;1.20;;;;;;;24.88;62.50;99840.09;4387144;32;33697;-89
2023/08/23 02:25:33;;;;;;;5.93;1.52;;;;;;;24.77;62.93;99835.78;4404586;32;32359;-89
2023/08/23 02:28:02;;;;;;;1.73;1.62;;;;;;;24.84;62.55;99833.31;4391551;32;32840;-88
2023/08/23 02:30:30;;;;;;;1.77;1.23;;;;;;;24.62;63.26;99827.41;4392821;32;32759;-88
2023/08/23 02:32:58;;;;;;;1.55;1.45;;;;;;;24.74;63.01;99828.00;4397674;32;33261;-88
2023/08/23 02:35:26;;;;;;;1.20;1.12;;;;;;;24.72;62.92;99822.75;4392544;32;32334;-88
2023/08/23 02:37:54;;;;;;;2.00;1.73;;;;;;;24.56;63.57;99838.81;4385005;32;33447;-88
2023/08/23 02:40:22;;;;;;;1.12;0.88;;;;;;;24.50;63.66;99829.50;4386856;32;33685;-88
2023/08/23 02:42:53;;;;;;;0.73;0.73;;;;;;;24.64;63.17;99827.22;4372076;32;34391;-88
2023/08/23 02:45:21;;;;;;;1.23;1.20;;;;;;;24.65;63.12;99829.78;4380491;32;33938;-87
2023/08/23 02:47:49;;;;;;;1.10;1.00;;;;;;;24.56;63.53;99835.28;4402296;32;32774;-88
2023/08/23 02:50:18;;;;;;;1.45;1.35;;;;;;;24.59;63.16;99835.78;4377957;32;33274;-88
2023/08/23 02:52:45;;;;;;;0.75;0.75;;;;;;;24.64;63.02;99835.34;4404513;32;33174;-88
2023/08/23 02:55:15;;;;;;;1.23;1.17;;;;;;;24.65;62.90;99835.19;4402419;32;33267;-89
2023/08/23 02:57:43;;;;;;;2.45;1.67;;;;;;;24.59;63.31;99841.19;4402797;32;33643;-90
2023/08/23 03:00:11;;;;;;;1.85;1.15;;;;;;;24.63;63.22;99842.59;4404407;32;32515;-90
2023/08/23 03:02:40;;;;;;;1.52;1.30;;;;;;;24.50;63.69;99836.75;4405448;32;32365;-90
2023/08/23 03:05:07;;;;;;;1.30;1.20;;;;;;;24.47;63.80;99842.47;4379779;32;32497;-90
2023/08/23 03:07:35;;;;;;;1.02;0.93;;;;;;;24.40;63.81;99835.97;4387448;32;33193;-88
2023/08/23 03:10:03;;;;;;;1.62;1.45;;;;;;;24.42;63.81;99833.97;4374533;32;33763;-88
2023/08/23 03:12:31;;;;;;;1.62;1.48;;;;;;;24.47;63.60;99837.06;4373621;32;33187;-88
2023/08/23 03:14:58;;;;;;;1.95;1.67;;;;;;;24.50;63.28;99832.22;4396454;32;32988;-88
2023/08/23 03:17:26;;;;;;;1.58;1.42;;;;;;;24.46;63.39;99835.38;4401740;32;33107;-88
2023/08/23 03:19:56;;;;;;;2.00;1.83;;;;;;;24.38;63.76;99846.09;4379797;32;33354;-88
2023/08/23 03:22:24;;;;;;;3.28;2.55;;;;;;;24.42;63.57;99836.69;4387755;32;32708;-88
2023/08/23 03:24:52;;;;;;;2.50;1.50;;;;;;;24.27;63.97;99839.03;4410600;32;33200;-88
2023/08/23 03:27:20;;;;;;;4.40;1.73;;;;;;;24.32;63.90;99843.97;4404652;32;33073;-88
2023/08/23 03:29:48;;;;;;;0.90;0.90;;;;;;;24.31;63.99;99842.25;4398970;32;33263;-88
2023/08/23 03:32:16;;;;;;;2.12;1.42;;;;;;;24.32;63.94;99834.03;4393144;32;34601;-88
2023/08/23 03:34:45;;;;;;;1.50;1.40;;;;;;;24.35;63.92;99831.00;4392490;32;32984;-88
2023/08/23 03:37:13;;;;;;;0.73;0.73;;;;;;;24.22;64.31;99828.72;4409643;32;34111;-88
2023/08/23 03:39:41;;;;;;;2.20;1.52;;;;;;;24.44;63.53;99822.00;4403005;32;32999;-87
2023/08/23 03:42:08;;;;;;;1.33;1.05;;;;;;;24.48;63.31;99822.56;4400618;32;32650;-87
2023/08/23 03:44:37;;;;;;;2.22;1.90;;;;;;;24.59;62.82;99829.56;4391252;32;33948;-86
2023/08/23 03:47:05;;;;;;;3.03;1.55;;;;;;;24.43;63.10;99828.41;4383637;32;34931;-85
2023/08/23 03:49:35;;;;;;;1.90;1.55;;;;;;;24.35;63.54;99822.06;4397993;32;33349;-87
2023/08/23 03:52:03;;;;;;;1.98;1.87;;;;;;;24.27;64.19;99831.78;4391182;32;33906;-87
2023/08/23 03:54:32;;;;;;;5.60;1.42;;;;;;;24.41;63.74;99832.28;4374118;32;33146;-87
2023/08/23 03:57:00;;;;;;;5.28;2.03;;;;;;;24.19;64.47;99841.66;4386608;32;32498;-87
2023/08/23 03:59:27;;;;;;;1.17;1.08;;;;;;;24.20;64.47;99838.78;4384459;32;34657;-86
2023/08/23 04:01:55;;;;;;;1.92;1.75;;;;;;;24.28;64.36;99838.03;4372330;32;33820;-86
2023/08/23 04:04:23;;;;;;;1.55;1.42;;;;;;;24.32;64.30;99833.19;4385454;32;34112;-87
2023/08/23 04:06:51;;;;;;;1.30;0.90;;;;;;;24.27;64.22;99837.19;4401706;32;33982;-87
2023/08/23 04:09:20;;;;;;;1.27;1.20;;;;;;;24.27;64.39;99834.50;4399349;32;33977;-86
2023/08/23 04:11:49;;;;;;;4.90;1.85;;;;;;;24.25;64.58;99833.78;4379213;32;34015;-90
2023/08/23 04:14:17;;;;;;;3.78;1.52;;;;;;;24.36;63.97;99829.19;4386309;32;33729;-90
2023/08/23 04:16:45;;;;;;;1.37;1.05;;;;;;;24.25;64.35;99831.09;4385874;32;33702;-90
2023/08/23 04:19:13;;;;;;;1.73;1.62;;;;;;;24.28;64.35;99827.25;4385843;32;33902;-90
2023/08/23 04:21:41;;;;;;;0.62;0.62;;;;;;;24.33;64.23;99814.12;4403327;32;32877;-90
2023/08/23 04:24:09;;;;;;;1.40;1.02;;;;;;;24.43;64.00;99814.09;4372724;32;33385;-88
2023/08/23 04:26:38;;;;;;;1.17;1.08;;;;;;;24.38;64.31;99811.84;4384783;32;32518;-88
2023/08/23 04:29:05;;;;;;;2.50;1.73;;;;;;;24.49;64.21;99803.50;4373946;32;33985;-88
2023/08/23 04:31:33;;;;;;;1.27;1.17;;;;;;;24.39;64.40;99801.91;4390767;32;33933;-88
2023/08/23 04:34:03;;;;;;;1.02;0.95;;;;;;;24.44;64.28;99802.28;4374051;32;31883;-88
2023/08/23 04:36:31;;;;;;;16.30;2.70;;;;;;;24.71;63.38;99815.66;4398998;32;34039;-89
2023/08/23 04:38:59;;;;;;;2.60;2.22;;;;;;;24.61;63.90;99805.97;4403975;32;34077;-90
2023/08/23 04:41:27;;;;;;;0.80;0.75;;;;;;;24.67;63.77;99811.56;4397478;32;32889;-90
2023/08/23 04:43:54;;;;;;;0.55;0.55;;;;;;;24.69;63.97;99814.12;4372290;32;32362;-90
2023/08/23 04:46:22;;;;;;;0.70;0.70;;;;;;;24.73;63.99;99810.09;4374594;32;33856;-90
2023/08/23 04:48:51;;;;;;;3.03;2.33;;;;;;;24.93;63.49;99818.87;4373006;32;33751;-88
2023/08/23 04:51:18;;;;;;;0.60;0.60;;;;;;;24.87;63.84;99817.63;4372439;32;33545;-87
2023/08/23 04:53:46;;;;;;;2.35;2.15;;;;;;;25.30;62.66;99821.28;4385064;32;33708;-88
2023/08/23 04:56:15;;;;;;;1.80;1.58;;;;;;;25.37;62.45;99824.22;4401408;32;33025;-88
2023/08/23 04:58:43;;;;;;;0.55;0.45;;;;;;;25.19;63.44;99824.28;4392057;32;34043;-88
2023/08/23 05:01:10;;;;;;;2.10;1.90;;;;;;;25.15;63.88;99817.50;4405053;32;34173;-88
2023/08/23 05:03:39;;;;;;;1.33;1.12;;;;;;;25.19;64.19;99822.41;4392314;32;33920;-88
2023/08/23 05:06:06;;;;;;;1.45;1.12;;;;;;;25.33;64.00;99817.44;4373418;32;32871;-88
2023/08/23 05:08:35;;;;;;;4.97;2.05;;;;;;;25.37;64.07;99818.81;4376143;32;33236;-86
2023/08/23 05:11:03;;;;;;;1.90;1.27;;;;;;;25.43;63.91;99818.16;4410798;32;32687;-88
2023/08/23 05:13:31;;;;;;;2.22;1.70;;;;;;;25.61;63.45;99818.06;4405227;32;33423;-88
2023/08/23 05:16:00;;;;;;;1.73;1.62;;;;;;;26.02;62.51;99808.25;4373245;32;33113;-89
2023/08/23 05:18:28;;;;;;;1.20;1.17;;;;;;;25.97;62.99;99800.63;4404672;32;34412;-89
2023/08/23 05:20:59;;;;;;;1.67;1.58;;;;;;;25.95;63.29;99805.34;4401419;32;232362;-90
2023/08/23 05:23:28;;;;;;;5.90;2.37;;;;;;;25.87;63.66;99799.06;4379295;32;32516;-90
2023/08/23 05:25:56;;;;;;;2.90;2.12;;;;;;;26.29;62.56;99810.63;4379423;32;33336;-89
2023/08/23 05:28:23;;;;;;;2.50;1.37;;;;;;;26.62;nan;99809.81;4410713;32;33407;-90
2023/08/23 05:30:52;;;;;;;1.73;1.62;;;;;;;26.72;59.41;99805.91;4372747;32;33084;-90
2023/08/23 05:33:21;;;;;;;3.72;2.00;;;;;;;26.77;59.36;99808.13;4385106;32;31888;-89
2023/08/23 05:35:50;;;;;;;0.90;0.82;;;;;;;26.89;59.23;99812.16;4399642;32;33931;-90
2023/08/23 05:38:20;;;;;;;3.47;1.92;;;;;;;26.90;58.98;99810.31;4404025;32;33413;-90
2023/08/23 05:40:48;;;;;;;5.00;2.83;;;;;;;27.01;58.83;99816.22;4403337;32;33393;-90
2023/08/23 05:43:15;;;;;;;2.47;2.08;;;;;;;27.09;58.32;99820.78;4386462;32;32652;-90
2023/08/23 05:45:44;;;;;;;1.45;1.35;;;;;;;27.17;58.04;99811.81;4373250;32;33323;-90
2023/08/23 05:48:13;;;;;;;2.53;1.37;;;;;;;27.12;58.01;99812.34;4385887;32;34450;-90
2023/08/23 05:50:41;;;;;;;0.90;0.90;;;;;;;27.29;57.00;99813.97;4396837;32;33040;-90
2023/08/23 05:53:10;;;;;;;1.48;1.37;;;;;;;27.62;57.16;99808.41;4397066;32;32226;-90
2023/08/23 05:55:38;;;;;;;2.72;1.12;;;;;;;27.66;56.16;99817.87;4384485;32;34564;-90
2023/08/23 05:58:07;;;;;;;1.05;1.05;;;;;;;27.76;56.82;99821.25;4397598;32;33105;-88
2023/08/23 06:00:35;;;;;;;2.03;1.48;;;;;;;27.77;57.39;99814.84;4385785;32;33447;-87
2023/08/23 06:03:04;;;;;;;4.80;1.95;;;;;;;27.79;56.52;99815.47;4384002;32;33420;-87
2023/08/23 06:05:32;;;;;;;1.12;0.98;;;;;;;28.11;55.49;99808.19;4377564;32;33223;-87
2023/08/23 06:08:02;;;;;;;1.27;1.17;;;;;;;28.23;54.67;99804.00;4386710;32;33424;-89
2023/08/23 06:10:30;;;;;;;1.15;1.15;;;;;;;28.42;55.50;99807.28;4386395;32;32601;-88
2023/08/23 06:12:57;;;;;;;1.02;1.02;;;;;;;28.62;55.14;99808.47;4392215;32;33302;-87
2023/08/23 06:15:25;;;;;;;1.98;1.08;;;;;;;28.87;53.49;99813.72;4386811;32;33747;-88
2023/08/23 06:17:54;;;;;;;2.33;1.77;;;;;;;28.92;53.54;99811.28;4404927;32;32794;-89
2023/08/23 06:20:22;;;;;;;1.90;1.60;;;;;;;29.16;53.75;99807.47;4404394;32;32590;-89
2023/08/23 06:22:50;;;;;;;2.80;1.48;;;;;;;29.35;54.14;99801.47;4385065;32;33436;-88
2023/08/23 06:25:18;;;;;;;6.12;2.35;;;;;;;29.40;53.30;99803.63;4408064;32;33128;-88
2023/08/23 06:27:46;;;;;;;1.40;1.30;;;;;;;29.53;51.24;99807.38;4400493;32;33599;-87
2023/08/23 06:30:15;;;;;;;1.30;1.10;;;;;;;29.76;51.01;99804.53;4397061;32;33385;-87
2023/08/23 06:32:46;;;;;;;5.87;1.62;;;;;;;30.06;49.97;99809.91;4398000;32;33806;-89
2023/08/23 06:35:21;;;;;;;2.65;1.95;;;;;;;30.07;49.11;99806.16;4402918;32;33306;-89
2023/08/23 06:37:49;;;;;;;3.33;2.47;;;;;;;30.02;47.94;99814.06;4378883;32;34317;-89
2023/08/23 06:40:17;;;;;;;2.80;2.37;;;;;;;30.26;47.47;99811.00;4400767;32;34183;-88
2023/08/23 06:42:46;;;;;;;1.98;1.37;;;;;;;30.40;47.51;99813.84;4381965;32;32735;-88
2023/08/23 06:45:14;;;;;;;2.05;1.83;;;;;;;30.45;47.13;99809.50;4385963;32;32440;-86
2023/08/23 06:47:42;;;;;;;1.45;1.35;;;;;;;30.47;47.14;99812.84;4399286;32;33847;-87
2023/08/23 06:50:10;;;;;;;1.92;1.35;;;;;;;30.53;47.42;99812.09;4408407;32;33258;-87
2023/08/23 06:52:43;;;;;;;2.78;1.48;;;;;;;30.57;47.25;99812.53;4404036;32;32682;-88
2023/08/23 06:55:11;;;;;;;1.12;1.10;;;;;;;30.64;46.66;99813.44;4380280;32;32345;-87
2023/08/23 06:57:39;;;;;;;1.55;1.42;;;;;;;31.09;47.21;99817.56;4373290;32;32821;-87
2023/08/23 07:00:08;;;;;;;3.25;1.95;;;;;;;31.00;46.94;99828.84;4384115;32;34049;-87
2023/08/23 07:02:36;;;;;;;2.75;2.10;;;;;;;31.17;46.08;99824.75;4381324;32;32687;-87
2023/08/23 07:05:04;;;;;;;5.35;2.87;;;;;;;31.30;45.75;99826.78;4380947;32;34615;-87
2023/08/23 07:07:32;;;;;;;1.60;1.50;;;;;;;31.21;45.91;99830.66;4377432;32;33158;-87
2023/08/23 07:10:00;;;;;;;1.58;1.48;;;;;;;31.18;45.90;99821.00;4392155;32;34571;-87
2023/08/23 07:12:44;;;;;;;1.27;1.27;;;;;;;31.48;45.10;99826.25;4395813;32;31309;-87
2023/08/23 07:15:12;;;;;;;2.80;2.30;;;;;;;31.23;45.63;99825.84;4392048;32;33001;-88
2023/08/23 07:17:40;;;;;;;2.72;1.95;;;;;;;31.30;45.35;99824.88;4390345;32;33366;-87
2023/08/23 07:20:09;;;;;;;1.60;1.37;;;;;;;31.67;45.28;99821.91;4369986;32;34597;-87
2023/08/23 07:22:37;;;;;;;1.45;1.35;;;;;;;31.60;45.06;99820.00;4391206;32;33052;-87
2023/08/23 07:25:05;;;;;;;1.77;1.48;;;;;;;31.51;45.36;99828.56;4392568;32;33545;-87
2023/08/23 07:27:33;;;;;;;1.50;1.40;;;;;;;31.89;45.50;99822.66;4382364;32;33342;-87
2023/08/23 07:30:01;;;;;;;1.70;1.60;;;;;;;31.91;46.23;99821.44;4390539;32;34014;-88
2023/08/23 07:32:30;;;;;;;5.07;2.42;;;;;;;31.92;44.70;99827.72;4402102;32;33022;-88
2023/08/23 07:35:02;;;;;;;2.85;2.33;;;;;;;32.10;44.56;99838.91;4388354;32;33920;-88
2023/08/23 07:37:30;;;;;;;1.67;1.50;;;;;;;32.24;44.87;99826.97;4394762;32;33423;-87
2023/08/23 07:39:58;;;;;;;1.90;1.58;;;;;;;32.05;44.49;99842.28;4390000;32;33464;-88
2023/08/23 07:42:27;;;;;;;6.00;1.40;;;;;;;32.10;44.75;99841.66;4363648;32;33502;-88
2023/08/23 07:44:55;;;;;;;3.58;2.03;;;;;;;32.18;44.92;99844.16;4373949;32;32257;-89
2023/08/23 07:47:23;;;;;;;2.25;1.25;;;;;;;32.16;45.15;99846.28;4385711;32;33453;-89
2023/08/23 07:49:51;;;;;;;4.30;2.25;;;;;;;32.59;44.31;99835.03;4397991;32;33659;-89
2023/08/23 07:52:19;;;;;;;22.90;3.35;;;;;;;32.55;44.72;99839.22;4383561;32;32504;-89
2023/08/23 07:54:47;;;;;;;5.32;2.55;;;;;;;32.39;44.77;99840.47;4384857;32;33065;-89
2023/08/23 07:57:15;;;;;;;2.97;2.35;;;;;;;32.41;45.01;99845.72;4404465;32;33375;-89
2023/08/23 07:59:42;;;;;;;2.37;2.17;;;;;;;32.67;44.71;99843.03;4374339;32;33135;-89
2023/08/23 08:02:11;;;;;;;6.97;1.48;;;;;;;32.60;44.51;99839.44;4385796;32;33409;-89
2023/08/23 08:04:39;;;;;;;6.28;2.90;;;;;;;32.98;45.05;99850.63;4413354;32;33672;-89
2023/08/23 08:07:07;;;;;;;3.33;2.17;;;;;;;32.93;44.41;99838.63;4395331;32;34133;-89
2023/08/23 08:09:35;;;;;;;1.40;1.30;;;;;;;33.10;44.57;99837.16;4371786;32;32758;-89
2023/08/23 08:12:03;;;;;;;2.15;1.95;;;;;;;33.30;44.14;99845.31;4389339;32;33501;-89
2023/08/23 08:14:31;;;;;;;2.08;1.85;;;;;;;33.50;43.94;99843.41;4378548;32;32123;-89
2023/08/23 08:16:59;;;;;;;2.47;1.80;;;;;;;33.36;44.50;99837.09;4383733;32;33114;-89
2023/08/23 08:19:28;;;;;;;3.45;2.75;;;;;;;33.69;43.43;99836.19;4383493;32;33817;-89
2023/08/23 08:21:55;;;;;;;2.12;1.90;;;;;;;33.23;43.31;99841.75;4409168;32;33789;-87
2023/08/23 08:24:26;;;;;;;2.20;1.85;;;;;;;33.62;44.38;99829.91;4389747;32;33866;-89
2023/08/23 08:26:54;;;;;;;6.35;1.85;;;;;;;33.87;43.47;99833.56;4393544;32;34478;-88
2023/08/23 08:29:22;;;;;;;1.83;1.67;;;;;;;33.73;43.03;99833.84;4377303;32;31999;-89
2023/08/23 08:31:50;;;;;;;3.72;1.70;;;;;;;33.70;42.43;99826.91;4390544;32;33649;-90
2023/08/23 08:34:19;;;;;;;2.17;1.83;;;;;;;33.87;42.05;99828.09;4409789;32;33292;-89
2023/08/23 08:36:46;;;;;;;2.22;2.03;;;;;;;33.94;42.15;99838.16;4397497;32;33624;-89
2023/08/23 08:39:14;;;;;;;1.75;1.58;;;;;;;34.29;41.67;99828.53;4398955;32;32540;-89
2023/08/23 08:41:44;;;;;;;5.40;3.05;;;;;;;34.39;41.33;99826.13;4397251;32;33525;-89
2023/08/23 08:44:12;;;;;;;2.78;1.65;;;;;;;34.62;41.08;99819.25;4399300;32;33845;-88
2023/08/23 08:46:40;;;;;;;2.30;1.77;;;;;;;34.78;40.85;99824.16;4377984;32;33628;-88
2023/08/23 08:49:08;;;;;;;5.07;2.95;;;;;;;34.64;41.91;99833.56;4386272;32;34802;-89
2023/08/23 08:51:36;;;;;;;3.62;2.62;;;;;;;34.55;41.73;99834.91;4371224;32;32378;-89
2023/08/23 08:54:05;;;;;;;10.23;1.80;;;;;;;34.57;42.19;99833.63;4383676;32;32163;-89
2023/08/23 08:56:33;;;;;;;17.55;4.40;;;;;;;34.86;40.94;99829.38;4397861;32;33278;-88
2023/08/23 08:59:03;;;;;;;1.62;1.23;;;;;;;34.84;42.48;99834.25;4382661;32;33652;-89
2023/08/23 09:01:32;;;;;;;1.40;1.30;;;;;;;34.79;42.45;99831.34;4402179;32;32982;-89
2023/08/23 09:04:00;;;;;;;1.50;1.40;;;;;;;34.71;42.15;99831.63;4399135;32;33954;-89
2023/08/23 09:06:29;;;;;;;1.33;1.23;;;;;;;34.87;41.40;99839.28;4374588;32;34196;-89
2023/08/23 09:08:58;;;;;;;3.15;2.65;;;;;;;34.78;41.18;99826.06;4410194;32;34717;-89
2023/08/23 09:11:26;;;;;;;2.87;1.52;;;;;;;35.15;41.70;99832.53;4402913;32;35122;-88
2023/08/23 09:13:54;;;;;;;1.50;1.40;;;;;;;35.17;41.00;99830.38;4390939;32;33420;-89
2023/08/23 09:16:26;;;;;;;2.03;1.83;;;;;;;35.27;40.43;99836.19;4379670;32;32548;-89
2023/08/23 09:18:56;;;;;;;1.77;1.65;;;;;;;35.61;40.84;99833.97;4402896;32;32802;-89
2023/08/23 09:21:24;;;;;;;1.42;1.33;;;;;;;35.32;40.50;99836.38;4403500;32;31573;-89
2023/08/23 09:23:52;;;;;;;2.75;2.55;;;;;;;35.50;40.31;99837.44;4378234;32;33624;-89
2023/08/23 09:26:20;;;;;;;1.67;1.62;;;;;;;35.57;40.30;99846.47;4397170;32;34095;-89
2023/08/23 09:28:48;;;;;;;0.98;0.98;;;;;;;35.89;39.43;99839.72;4403117;32;34772;-89
2023/08/23 09:31:16;;;;;;;2.17;2.03;;;;;;;35.90;39.81;99833.16;4387598;32;33061;-89
2023/08/23 09:33:46;;;;;;;1.65;1.55;;;;;;;35.61;40.37;99834.78;4375811;32;32262;-89
2023/08/23 09:36:26;;;;;;;1.90;1.58;;;;;;;35.49;40.81;99830.28;4397158;32;33026;-89
2023/08/23 09:38:55;;;;;;;4.80;2.50;;;;;;;35.78;40.42;99828.66;4373963;32;32783;-89
2023/08/23 09:41:23;;;;;;;2.20;2.03;;;;;;;35.72;39.56;99827.69;4404828;32;33404;-89
2023/08/23 09:43:54;;;;;;;1.62;1.40;;;;;;;35.91;40.00;99823.84;4403135;32;32637;-89
2023/08/23 09:46:27;;;;;;;1.83;1.73;;;;;;;36.04;39.51;99822.03;4392823;32;35088;-89
2023/08/23 09:48:58;;;;;;;3.05;2.30;;;;;;;35.76;39.94;99823.41;4392308;32;34472;-88
2023/08/23 09:51:27;;;;;;;3.05;1.98;;;;;;;36.18;38.79;99818.00;4379573;32;33439;-89
2023/08/23 09:53:56;;;;;;;2.10;1.87;;;;;;;36.60;38.13;99815.25;4403933;32;33034;-89
2023/08/23 09:56:24;;;;;;;2.80;1.37;;;;;;;36.61;37.39;99817.78;4405622;32;33254;-89
2023/08/23 09:58:53;;;;;;;2.20;2.10;;;;;;;36.53;37.31;99809.03;4391839;32;33583;-89
2023/08/23 10:01:21;;;;;;;1.65;1.55;;;;;;;36.22;38.70;99816.44;4404403;32;32211;-89
2023/08/23 10:04:01;;;;;;;2.28;2.10;;;;;;;36.34;38.42;99816.50;4412982;32;32788;-89
2023/08/23 10:06:32;;;;;;;1.90;1.67;;;;;;;36.15;37.80;99815.72;4392260;32;34031;-89
2023/08/23 10:09:03;;;;;;;2.47;1.87;;;;;;;36.14;38.02;99820.38;4387755;32;34898;-89
2023/08/23 10:11:31;;;;;;;1.90;1.67;;;;;;;36.38;38.02;99813.03;4386639;32;32753;-90
2023/08/23 10:14:17;;;;;;;3.00;1.85;;;;;;;36.56;38.80;99800.31;4399972;32;32708;-89
2023/08/23 10:16:45;;;;;;;3.00;2.42;;;;;;;36.51;36.90;99803.78;4377466;32;32485;-89
2023/08/23 10:19:12;;;;;;;2.55;2.03;;;;;;;36.21;37.67;99814.78;4395036;32;32621;-88
2023/08/23 10:21:40;;;;;;;1.65;1.48;;;;;;;36.49;37.04;99802.31;4406100;32;34015;-89
2023/08/23 10:24:08;;;;;;;2.58;2.00;;;;;;;36.72;37.61;99809.78;4405216;32;33326;-89
2023/08/23 10:26:46;;;;;;;4.03;1.37;;;;;;;36.99;36.59;99801.94;4374177;32;33192;-89
2023/08/23 10:29:14;;;;;;;8.88;2.90;;;;;;;36.86;36.22;99803.81;4397263;32;33832;-88
2023/08/23 10:31:53;;;;;;;2.40;2.12;;;;;;;36.61;36.94;99804.03;4396027;32;33509;-89
2023/08/23 10:34:26;;;;;;;1.73;1.62;;;;;;;36.50;37.21;99804.00;4399076;32;34397;-89
2023/08/23 10:36:55;;;;;;;2.30;2.10;;;;;;;36.27;37.73;99805.56;4398538;32;32949;-89
2023/08/23 10:39:24;;;;;;;2.47;2.28;;;;;;;36.06;39.12;99797.88;4390389;32;34220;-89
2023/08/23 10:41:55;;;;;;;2.70;2.30;;;;;;;36.23;37.39;99787.91;4387133;32;34058;-90
2023/08/23 10:44:22;;;;;;;4.68;2.28;;;;;;;35.85;39.20;99800.03;4384518;32;34184;-91
2023/08/23 10:46:54;;;;;;;2.30;1.70;;;;;;;36.12;37.83;99796.94;4392896;32;32645;-90
2023/08/23 10:49:23;;;;;;;1.37;1.37;;;;;;;36.21;37.41;99801.03;4374794;32;32384;-89
2023/08/23 10:51:53;;;;;;;2.90;2.67;;;;;;;36.28;37.37;99796.28;4387035;32;33662;-90
2023/08/23 10:54:21;;;;;;;1.58;1.48;;;;;;;36.27;36.59;99791.84;4370252;32;33120;-88
2023/08/23 10:56:49;;;;;;;2.90;2.35;;;;;;;36.16;37.78;99792.66;4395285;32;33059;-87
2023/08/23 10:59:17;;;;;;;2.50;2.30;;;;;;;36.08;37.57;99795.72;4403491;32;32494;-88
2023/08/23 11:01:45;;;;;;;3.62;1.48;;;;;;;36.18;37.28;99787.78;4386351;32;33340;-89
2023/08/23 11:04:13;;;;;;;2.37;2.17;;;;;;;36.55;37.00;99784.88;4386306;32;33902;-89
2023/08/23 11:06:41;;;;;;;1.55;1.45;;;;;;;36.59;37.53;99786.06;4403188;32;33636;-88
2023/08/23 11:09:09;;;;;;;3.37;1.87;;;;;;;36.70;37.27;99774.25;4383806;32;33650;-88
2023/08/23 11:11:37;;;;;;;4.57;2.45;;;;;;;36.50;36.76;99779.25;4398799;32;33146;-89
2023/08/23 11:14:06;;;;;;;2.22;1.75;;;;;;;36.58;36.19;99784.41;4387264;32;33757;-88
2023/08/23 11:16:35;;;;;;;3.70;1.75;;;;;;;36.60;35.04;99776.75;4399279;32;33702;-88
2023/08/23 11:19:06;;;;;;;1.35;1.25;;;;;;;36.34;34.79;99778.84;4364484;32;31667;-88
2023/08/23 11:21:35;;;;;;;2.60;1.60;;;;;;;36.39;35.76;99787.22;4399946;32;33541;-88
2023/08/23 11:24:03;;;;;;;1.67;1.58;;;;;;;36.38;35.52;99781.97;4404789;32;34253;-88
2023/08/23 11:26:36;;;;;;;14.52;1.67;;;;;;;36.27;35.83;99778.09;4407711;32;32408;-88
2023/08/23 11:29:04;;;;;;;2.80;2.53;;;;;;;35.83;37.06;99784.84;4396008;32;33915;-88
2023/08/23 11:31:33;;;;;;;2.85;1.48;;;;;;;36.19;36.71;99774.88;4371539;32;33349;-88
2023/08/23 11:34:06;;;;;;;2.12;1.92;;;;;;;36.12;36.39;99784.03;4382084;32;31738;-88
2023/08/23 11:36:37;;;;;;;2.50;1.70;;;;;;;35.46;38.81;99784.06;4394171;32;36160;-88
2023/08/23 11:39:06;;;;;;;1.57;1.33;;;;;;;35.61;37.39;99776.28;4379229;32;33613;-88
2023/08/23 11:41:34;;;;;;;2.87;1.62;;;;;;;35.37;38.04;99776.12;4379819;32;31340;-88